Time;durP1;ratioP1;P1;durP2;ratioP2;P2;SDS_P1;SDS_P2;PMS_P1;PMS_P2;Temp;Humidity;BMP_temperature;BMP_pressure;BME280_temperature;BME280_humidity;BME280_pressure;Samples;Min_cycle;Max_cycle;Signal;HPM_P1;HPM_P2
2022/09/13 00:02:15;;;;;;;2.57;1.00;;;12.40;99.90;;;;;;5071234;28;20472;-49
2022/09/13 00:04:42;;;;;;;2.03;0.87;;;12.30;99.90;;;;;;5070655;28;20448;-49
2022/09/13 00:07:09;;;;;;;1.70;0.80;;;12.40;99.90;;;;;;5070806;28;20486;-48
2022/09/13 00:09:36;;;;;;;1.57;0.67;;;12.70;99.90;;;;;;5069017;28;20502;-49
2022/09/13 00:12:05;;;;;;;2.10;0.83;;;12.80;99.90;;;;;;5070544;28;20494;-48
2022/09/13 00:14:32;;;;;;;4.53;0.90;;;12.40;99.90;;;;;;5070828;28;20452;-48
2022/09/13 00:16:59;;;;;;;1.02;0.60;;;12.60;99.90;;;;;;5070839;28;20523;-48
2022/09/13 00:19:26;;;;;;;1.60;1.00;;;12.30;99.90;;;;;;5069909;28;20226;-48
2022/09/13 00:21:53;;;;;;;5.73;1.43;;;11.90;99.90;;;;;;5070252;28;20441;-48
2022/09/13 00:24:19;;;;;;;4.23;1.10;;;11.70;99.90;;;;;;5070389;28;20463;-48
2022/09/13 00:26:46;;;;;;;1.40;0.77;;;11.90;99.90;;;;;;5070540;28;20504;-48
2022/09/13 00:29:15;;;;;;;1.83;1.03;;;12.30;99.90;;;;;;5069763;28;20829;-47
2022/09/13 00:31:42;;;;;;;1.63;0.93;;;12.30;99.90;;;;;;5070715;28;20504;-48
2022/09/13 00:34:09;;;;;;;3.67;1.20;;;12.10;99.90;;;;;;5072036;28;20448;-48
2022/09/13 00:36:36;;;;;;;1.70;1.00;;;11.70;99.90;;;;;;5074785;28;20448;-49
2022/09/13 00:39:03;;;;;;;2.80;0.90;;;11.60;99.90;;;;;;5073846;28;20432;-48
2022/09/13 00:41:30;;;;;;;4.30;0.90;;;11.80;99.90;;;;;;5074491;28;20424;-49
2022/09/13 00:43:59;;;;;;;1.58;1.20;;;12.10;99.90;;;;;;5074672;28;20486;-48
2022/09/13 00:46:34;;;;;;;1.30;0.67;;;11.80;99.90;;;;;;5074525;28;20757;-47
2022/09/13 00:49:07;;;;;;;1.40;0.70;;;12.10;99.90;;;;;;5073372;28;20959;-48
2022/09/13 00:51:34;;;;;;;1.87;0.80;;;12.40;99.90;;;;;;5074459;28;20865;-48
2022/09/13 00:54:03;;;;;;;1.70;0.90;;;12.30;99.90;;;;;;5074242;28;21002;-47
2022/09/13 00:56:34;;;;;;;1.10;0.80;;;11.80;99.90;;;;;;5074536;28;20533;-47
2022/09/13 00:59:04;;;;;;;2.20;0.90;;;12.10;99.90;;;;;;5073691;28;20468;-49
2022/09/13 01:01:44;;;;;;;2.87;0.90;;;11.80;99.90;;;;;;5074981;28;20441;-47
2022/09/13 01:04:12;;;;;;;2.10;0.70;;;12.20;99.90;;;;;;5074692;28;20509;-50
2022/09/13 01:06:41;;;;;;;1.50;0.90;;;12.20;99.90;;;;;;5073971;28;20976;-48
2022/09/13 01:09:11;;;;;;;1.50;0.70;;;12.30;99.90;;;;;;5071835;28;20524;-48
2022/09/13 01:11:46;;;;;;;1.10;0.60;;;12.30;99.90;;;;;;5073889;28;20544;-50
2022/09/13 01:14:13;;;;;;;1.63;0.80;;;11.90;99.90;;;;;;5073813;28;20432;-48
2022/09/13 01:16:41;;;;;;;1.10;0.60;;;11.90;99.90;;;;;;5074413;28;20483;-49
2022/09/13 01:19:09;;;;;;;1.40;0.70;;;12.10;99.90;;;;;;5073137;28;20448;-48
2022/09/13 01:22:25;;;;;;;1.85;0.80;;;12.20;99.90;;;;;;5073702;28;20617;-48
2022/09/13 01:25:27;;;;;;;1.00;0.67;;;12.10;99.90;;;;;;5010974;28;20662;-48
2022/09/13 01:28:18;;;;;;;2.00;0.70;;;12.10;99.90;;;;;;5011743;28;20442;-48
2022/09/13 01:30:54;;;;;;;1.05;0.63;;;12.20;99.90;;;;;;5070877;28;20570;-49
2022/09/13 01:33:39;;;;;;;1.50;0.67;;;12.20;99.90;;;;;;5073685;28;20200;-48
2022/09/13 01:36:22;;;;;;;1.30;0.70;;;12.30;99.90;;;;;;5073584;28;20468;-49
2022/09/13 01:39:03;;;;;;;1.80;0.77;;;12.10;99.90;;;;;;5072775;28;20437;-48
2022/09/13 01:42:00;;;;;;;2.30;0.93;;;11.60;99.90;;;;;;5073712;28;20468;-49
2022/09/13 01:44:49;;;;;;;1.20;0.77;;;11.30;99.90;;;;;;5073505;28;20429;-48
2022/09/13 01:47:26;;;;;;;2.30;1.00;;;11.40;99.90;;;;;;5072637;28;20440;-48
2022/09/13 01:50:05;;;;;;;1.00;0.70;;;11.50;99.90;;;;;;5071297;28;20528;-48
2022/09/13 01:52:42;;;;;;;1.63;0.70;;;11.50;99.90;;;;;;5073126;28;20555;-48
2022/09/13 01:55:17;;;;;;;1.47;0.80;;;11.80;99.90;;;;;;5073133;28;20312;-49
2022/09/13 01:57:54;;;;;;;1.43;0.80;;;12.00;99.90;;;;;;5073336;28;20598;-48
2022/09/13 02:00:21;;;;;;;1.30;0.77;;;11.50;99.90;;;;;;5072282;28;20444;-49
2022/09/13 02:02:54;;;;;;;1.73;0.70;;;11.40;99.90;;;;;;5073120;28;20229;-48
2022/09/13 02:05:28;;;;;;;1.77;1.40;;;11.40;99.90;;;;;;5072863;28;20654;-48
2022/09/13 02:08:00;;;;;;;4.03;1.43;;;11.60;99.90;;;;;;5071498;28;20674;-50
2022/09/13 02:10:33;;;;;;;1.80;1.07;;;11.20;99.90;;;;;;5072547;28;20476;-48
2022/09/13 02:13:03;;;;;;;1.30;0.80;;;11.30;99.90;;;;;;5072889;28;20483;-48
2022/09/13 02:15:36;;;;;;;2.33;0.87;;;11.20;99.90;;;;;;5072477;28;20303;-48
2022/09/13 02:18:09;;;;;;;1.53;0.60;;;11.70;99.90;;;;;;5072715;28;20433;-48
2022/09/13 02:20:41;;;;;;;1.10;0.67;;;11.80;99.90;;;;;;5072047;28;20481;-48
2022/09/13 02:23:12;;;;;;;1.30;0.70;;;11.50;99.90;;;;;;5072893;28;20475;-50
2022/09/13 02:25:40;;;;;;;1.47;0.70;;;11.80;99.90;;;;;;5072730;28;20510;-48
2022/09/13 02:28:11;;;;;;;1.10;0.60;;;11.90;99.90;;;;;;5072708;28;20449;-49
2022/09/13 02:30:41;;;;;;;1.20;0.60;;;12.00;99.90;;;;;;5071786;28;20199;-48
2022/09/13 02:33:15;;;;;;;1.97;0.70;;;11.70;99.90;;;;;;5072658;28;20587;-48
2022/09/13 02:35:48;;;;;;;1.00;0.60;;;11.40;99.90;;;;;;5072603;28;20500;-49
2022/09/13 02:38:22;;;;;;;1.10;0.63;;;11.00;99.90;;;;;;5072576;28;20456;-49
2022/09/13 02:40:55;;;;;;;1.60;1.37;;;11.20;99.90;;;;;;5072007;28;20508;-48
2022/09/13 02:43:30;;;;;;;2.30;0.70;;;11.50;99.90;;;;;;5072469;28;20845;-49
2022/09/13 02:46:09;;;;;;;1.67;0.70;;;11.50;99.90;;;;;;5072086;28;20534;-49
2022/09/13 02:48:48;;;;;;;1.73;0.60;;;11.40;99.90;;;;;;5070998;28;20440;-47
2022/09/13 02:51:21;;;;;;;1.38;0.60;;;11.80;99.90;;;;;;5072155;28;20926;-48
2022/09/13 02:53:55;;;;;;;1.27;0.63;;;11.50;99.90;;;;;;5072081;28;20619;-50
2022/09/13 02:56:29;;;;;;;2.42;0.90;;;11.40;99.90;;;;;;5071823;28;20526;-48
2022/09/13 02:59:00;;;;;;;1.20;0.50;;;11.80;99.90;;;;;;5071180;28;20198;-48
2022/09/13 03:01:28;;;;;;;1.53;0.70;;;11.90;99.90;;;;;;5071755;28;20483;-48
2022/09/13 03:03:56;;;;;;;1.17;0.70;;;11.20;99.90;;;;;;5071912;28;20482;-49
2022/09/13 03:06:24;;;;;;;1.43;0.87;;;11.30;99.90;;;;;;5071792;28;20452;-49
2022/09/13 03:08:51;;;;;;;1.00;0.50;;;11.30;99.90;;;;;;5069745;28;20470;-48
2022/09/13 03:11:28;;;;;;;1.70;0.90;;;11.40;99.90;;;;;;5071683;28;20560;-49
2022/09/13 03:14:30;;;;;;;1.13;0.67;;;11.30;99.90;;;;;;5071939;28;21002;-49
2022/09/13 03:17:15;;;;;;;2.08;0.73;;;11.20;99.90;;;;;;5071622;28;20464;-48
2022/09/13 03:20:08;;;;;;;3.80;1.10;;;11.40;99.90;;;;;;5070943;28;20559;-49
2022/09/13 03:23:00;;;;;;;1.13;0.70;;;11.20;99.90;;;;;;5071692;28;20478;-48
2022/09/13 03:25:40;;;;;;;2.10;0.77;;;11.40;99.90;;;;;;5071043;28;20483;-48
2022/09/13 03:28:16;;;;;;;1.50;0.77;;;11.30;99.90;;;;;;5071559;28;20456;-47
2022/09/13 03:30:49;;;;;;;1.60;1.43;;;11.30;99.90;;;;;;5070626;28;20444;-48
2022/09/13 03:33:26;;;;;;;1.03;0.60;;;11.70;99.90;;;;;;5071499;28;20441;-50
2022/09/13 03:36:01;;;;;;;1.30;0.70;;;11.70;99.90;;;;;;5070987;28;20871;-50
2022/09/13 03:38:33;;;;;;;1.57;0.77;;;11.30;99.90;;;;;;5071081;28;20428;-47
2022/09/13 03:41:05;;;;;;;1.53;0.83;;;10.90;99.90;;;;;;5070699;28;20450;-47
2022/09/13 03:43:37;;;;;;;1.20;0.80;;;10.90;99.90;;;;;;5071318;28;20933;-48
2022/09/13 03:46:06;;;;;;;1.00;0.50;;;10.80;99.90;;;;;;5071358;28;20492;-48
2022/09/13 03:48:36;;;;;;;1.30;0.50;;;11.20;99.90;;;;;;5070810;28;20485;-50
2022/09/13 03:51:05;;;;;;;1.20;0.50;;;11.20;99.90;;;;;;5070571;28;20997;-47
2022/09/13 03:53:36;;;;;;;1.63;0.67;;;11.20;99.90;;;;;;5071112;28;20514;-48
2022/09/13 03:56:13;;;;;;;4.50;0.90;;;10.90;99.90;;;;;;5071111;28;20545;-47
2022/09/13 03:58:40;;;;;;;1.00;0.50;;;10.90;99.90;;;;;;5070191;28;20890;-47
2022/09/13 04:01:09;;;;;;;1.50;0.73;;;10.90;99.90;;;;;;5070592;28;20859;-48
2022/09/13 04:03:36;;;;;;;1.53;0.90;;;11.10;99.90;;;;;;5070703;28;20436;-48
2022/09/13 04:06:05;;;;;;;2.03;0.70;;;11.50;99.90;;;;;;5070796;28;20518;-48
2022/09/13 04:08:32;;;;;;;3.60;0.73;;;11.60;99.90;;;;;;5068846;28;20490;-48
2022/09/13 04:11:00;;;;;;;2.47;0.80;;;11.50;99.90;;;;;;5070231;28;20490;-48
2022/09/13 04:13:27;;;;;;;1.20;0.70;;;11.50;99.90;;;;;;5070627;28;20472;-50
2022/09/13 04:15:54;;;;;;;1.57;0.77;;;11.30;99.90;;;;;;5070350;28;20476;-48
2022/09/13 04:18:23;;;;;;;1.30;0.80;;;11.30;99.90;;;;;;5070658;28;20429;-50
2022/09/13 04:20:57;;;;;;;2.10;0.83;;;11.40;99.90;;;;;;5070039;28;20513;-48
2022/09/13 04:23:26;;;;;;;3.35;1.05;;;11.40;99.90;;;;;;5070702;28;20505;-48
2022/09/13 04:25:53;;;;;;;3.97;1.17;;;10.40;99.90;;;;;;5070357;28;20271;-48
2022/09/13 04:28:22;;;;;;;1.60;1.20;;;10.20;99.90;;;;;;5072004;28;20486;-49
2022/09/13 04:30:50;;;;;;;2.58;0.60;;;10.60;99.90;;;;;;5069913;28;20437;-48
2022/09/13 04:33:17;;;;;;;1.10;0.60;;;10.80;99.90;;;;;;5070285;28;20249;-48
2022/09/13 04:35:44;;;;;;;1.87;0.97;;;10.70;99.90;;;;;;5070849;28;20483;-47
2022/09/13 04:38:11;;;;;;;1.77;0.70;;;10.60;99.90;;;;;;5070603;28;20440;-50
2022/09/13 04:40:39;;;;;;;1.20;0.60;;;10.70;99.90;;;;;;5069880;28;20228;-49
2022/09/13 04:43:06;;;;;;;1.57;1.00;;;10.90;99.90;;;;;;5070609;28;20482;-49
2022/09/13 04:45:33;;;;;;;1.90;1.07;;;11.20;99.90;;;;;;5070490;28;20448;-50
2022/09/13 04:48:00;;;;;;;1.60;0.93;;;10.70;99.90;;;;;;5069935;28;20480;-48
2022/09/13 04:50:27;;;;;;;1.70;0.87;;;10.50;99.90;;;;;;5069891;28;20860;-48
2022/09/13 04:52:55;;;;;;;1.40;0.73;;;10.50;99.90;;;;;;5070224;28;20879;-49
2022/09/13 04:55:24;;;;;;;1.50;0.88;;;10.50;99.90;;;;;;5070439;28;20496;-49
2022/09/13 04:57:55;;;;;;;2.53;1.40;;;10.70;99.90;;;;;;5070578;28;20551;-48
2022/09/13 05:00:24;;;;;;;1.90;1.23;;;10.60;99.90;;;;;;5069783;28;20433;-50
2022/09/13 05:02:56;;;;;;;10.80;1.30;;;10.70;99.90;;;;;;5070501;28;20440;-48
2022/09/13 05:05:24;;;;;;;1.33;0.80;;;11.00;99.90;;;;;;5070055;28;20476;-48
2022/09/13 05:07:51;;;;;;;1.50;0.80;;;10.40;99.90;;;;;;5069469;28;20948;-48
2022/09/13 05:10:19;;;;;;;3.05;0.70;;;10.40;99.90;;;;;;5069770;28;20957;-49
2022/09/13 05:12:46;;;;;;;2.07;0.83;;;10.60;99.90;;;;;;5070208;28;20225;-48
2022/09/13 05:15:15;;;;;;;1.40;0.77;;;10.80;99.90;;;;;;5070601;28;20464;-49
2022/09/13 05:17:42;;;;;;;1.90;0.90;;;11.00;99.90;;;;;;5070051;28;20834;-48
2022/09/13 05:20:09;;;;;;;2.13;0.83;;;10.70;99.90;;;;;;5070541;28;20849;-48
2022/09/13 05:22:36;;;;;;;5.83;0.73;;;10.70;99.90;;;;;;5073391;28;20432;-48
2022/09/13 05:25:04;;;;;;;6.00;0.90;;;11.00;99.90;;;;;;5073581;28;20883;-49
2022/09/13 05:27:31;;;;;;;1.20;0.80;;;10.90;99.90;;;;;;5073792;28;20949;-48
2022/09/13 05:29:58;;;;;;;1.50;0.77;;;10.50;99.90;;;;;;5073409;28;20436;-49
2022/09/13 05:32:26;;;;;;;1.10;0.77;;;10.60;99.90;;;;;;5074015;28;20222;-48
2022/09/13 05:34:53;;;;;;;1.80;0.90;;;10.70;99.90;;;;;;5073637;28;20536;-48
2022/09/13 05:37:20;;;;;;;1.30;0.63;;;10.90;99.90;;;;;;5073982;28;20493;-49
2022/09/13 05:39:47;;;;;;;3.00;1.43;;;10.80;99.90;;;;;;5072902;28;20514;-48
2022/09/13 05:42:14;;;;;;;1.10;0.70;;;10.30;99.90;;;;;;5073625;28;20464;-46
2022/09/13 05:44:41;;;;;;;1.30;0.90;;;10.30;99.90;;;;;;5073192;28;20451;-48
2022/09/13 05:47:08;;;;;;;3.50;1.13;;;10.50;99.90;;;;;;5073785;28;20502;-49
2022/09/13 05:49:36;;;;;;;2.33;1.40;;;10.60;99.90;;;;;;5072286;28;20437;-50
2022/09/13 05:52:03;;;;;;;1.70;1.03;;;10.90;99.90;;;;;;5073656;28;20503;-49
2022/09/13 05:54:31;;;;;;;2.37;1.10;;;10.70;99.90;;;;;;5073462;28;20460;-48
2022/09/13 05:56:58;;;;;;;1.63;0.90;;;10.50;99.90;;;;;;5073664;28;20457;-49
2022/09/13 05:59:25;;;;;;;2.70;1.07;;;10.60;99.90;;;;;;5072462;28;20194;-48
2022/09/13 06:01:52;;;;;;;1.93;1.30;;;10.70;99.90;;;;;;5073478;28;20581;-49
2022/09/13 06:04:19;;;;;;;1.87;1.20;;;11.00;99.90;;;;;;5073253;28;20519;-49
2022/09/13 06:06:48;;;;;;;1.63;1.10;;;11.20;99.90;;;;;;5073031;28;20459;-48
2022/09/13 06:09:15;;;;;;;1.48;1.05;;;10.70;99.90;;;;;;5071517;28;20499;-48
2022/09/13 06:11:42;;;;;;;1.57;1.20;;;10.80;99.90;;;;;;5073254;28;20202;-48
2022/09/13 06:14:10;;;;;;;2.97;2.00;;;10.70;99.90;;;;;;5072834;28;20463;-48
2022/09/13 06:16:37;;;;;;;3.30;1.53;;;11.00;99.90;;;;;;5073073;28;20472;-48
2022/09/13 06:19:04;;;;;;;12.57;8.57;;;11.20;99.90;;;;;;5072580;28;20979;-49
2022/09/13 06:21:31;;;;;;;2.13;1.40;;;11.20;99.90;;;;;;5073287;28;20921;-49
2022/09/13 06:23:59;;;;;;;5.70;2.70;;;11.30;99.90;;;;;;5073178;28;20933;-47
2022/09/13 06:26:28;;;;;;;4.20;1.70;;;10.60;99.90;;;;;;5072786;28;20229;-48
2022/09/13 06:28:56;;;;;;;1.50;1.30;;;10.70;99.90;;;;;;5072818;28;20490;-48
2022/09/13 06:31:25;;;;;;;1.50;1.00;;;11.00;99.90;;;;;;5072191;28;20485;-50
2022/09/13 06:33:56;;;;;;;1.00;0.57;;;11.30;99.90;;;;;;5072442;28;20469;-50
2022/09/13 06:36:24;;;;;;;2.97;1.97;;;11.10;99.90;;;;;;5072756;28;20471;-48
2022/09/13 06:38:51;;;;;;;6.43;4.10;;;11.00;99.90;;;;;;5071728;28;20436;-48
2022/09/13 06:41:22;;;;;;;5.20;1.87;;;10.70;99.90;;;;;;5072514;28;20513;-48
2022/09/13 06:43:53;;;;;;;2.13;1.43;;;11.00;99.90;;;;;;5072204;28;20436;-49
2022/09/13 06:46:20;;;;;;;3.33;2.70;;;11.20;99.90;;;;;;5072528;28;21007;-48
2022/09/13 06:48:48;;;;;;;5.57;2.85;;;11.30;99.90;;;;;;5070752;28;20533;-49
2022/09/13 06:51:17;;;;;;;3.60;3.13;;;11.30;99.90;;;;;;5072640;28;20259;-49
2022/09/13 06:53:45;;;;;;;4.27;2.83;;;10.90;99.90;;;;;;5071941;28;20472;-48
2022/09/13 06:56:15;;;;;;;4.10;2.40;;;10.80;99.90;;;;;;5071907;28;20464;-49
2022/09/13 06:58:46;;;;;;;4.23;3.80;;;10.90;99.90;;;;;;5071432;28;20237;-46
2022/09/13 07:01:16;;;;;;;2.08;1.17;;;10.90;99.90;;;;;;5072038;28;20926;-50
2022/09/13 07:03:44;;;;;;;2.43;1.30;;;11.00;99.90;;;;;;5072002;28;20202;-49
2022/09/13 07:06:14;;;;;;;2.20;1.03;;;11.10;99.90;;;;;;5072118;28;20514;-48
2022/09/13 07:08:43;;;;;;;2.10;1.50;;;11.20;99.90;;;;;;5070615;28;20449;-49
2022/09/13 07:11:12;;;;;;;4.73;1.60;;;11.40;99.90;;;;;;5071807;28;20440;-48
2022/09/13 07:13:39;;;;;;;1.70;1.20;;;11.10;99.90;;;;;;5071887;28;20468;-48
2022/09/13 07:16:10;;;;;;;43.50;5.30;;;11.10;99.90;;;;;;5072037;28;20484;-49
2022/09/13 07:18:38;;;;;;;2.20;1.42;;;11.40;99.90;;;;;;5071607;28;20440;-50
2022/09/13 07:21:07;;;;;;;3.20;1.70;;;11.50;99.90;;;;;;5071644;28;20207;-50
2022/09/13 07:23:36;;;;;;;2.87;1.50;;;11.30;99.90;;;;;;5072140;28;20720;-47
2022/09/13 07:26:04;;;;;;;1.90;1.00;;;11.30;99.90;;;;;;5071559;28;20460;-48
2022/09/13 07:28:33;;;;;;;5.80;1.43;;;11.40;99.90;;;;;;5071495;28;20460;-51
2022/09/13 07:31:08;;;;;;;2.33;1.30;;;11.80;99.90;;;;;;5070585;28;20519;-50
2022/09/13 07:33:35;;;;;;;37.43;23.90;;;11.80;99.90;;;;;;5071334;28;20507;-47
2022/09/13 07:36:05;;;;;;;7.27;4.27;;;12.40;99.90;;;;;;5071650;28;20786;-48
2022/09/13 07:38:33;;;;;;;4.20;1.80;;;12.30;99.90;;;;;;5071252;28;20436;-48
2022/09/13 07:41:00;;;;;;;4.60;1.70;;;12.60;99.90;;;;;;5071111;28;20547;-49
2022/09/13 07:43:28;;;;;;;1.93;1.10;;;12.30;99.90;;;;;;5070569;28;20194;-48
2022/09/13 07:45:59;;;;;;;1.70;0.80;;;12.20;99.90;;;;;;5071067;28;20459;-49
2022/09/13 07:48:30;;;;;;;1.60;0.80;;;12.50;99.90;;;;;;5070585;28;20464;-49
2022/09/13 07:50:58;;;;;;;1.17;0.60;;;13.00;99.90;;;;;;5070719;28;20500;-49
2022/09/13 07:53:25;;;;;;;1.77;0.80;;;13.20;99.90;;;;;;5070730;28;20545;-49
2022/09/13 07:55:52;;;;;;;2.40;1.00;;;13.20;99.90;;;;;;5071187;28;20559;-48
2022/09/13 07:58:19;;;;;;;2.10;1.20;;;13.10;99.90;;;;;;5071200;28;20544;-50
2022/09/13 08:00:46;;;;;;;1.90;1.40;;;13.10;99.90;;;;;;5070523;28;20237;-49
2022/09/13 08:03:13;;;;;;;1.87;1.20;;;13.20;99.90;;;;;;5070856;28;20464;-50
2022/09/13 08:05:42;;;;;;;1.90;1.20;;;13.30;99.90;;;;;;5071088;28;20457;-49
2022/09/13 08:08:09;;;;;;;1.90;0.93;;;13.70;99.90;;;;;;5070222;28;20428;-49
2022/09/13 08:10:36;;;;;;;3.10;1.50;;;13.60;99.90;;;;;;5070334;28;20212;-49
2022/09/13 08:13:03;;;;;;;1.33;0.83;;;13.70;99.90;;;;;;5070921;28;20218;-50
2022/09/13 08:15:30;;;;;;;4.07;1.50;;;13.60;99.90;;;;;;5070709;28;20498;-50
2022/09/13 08:17:57;;;;;;;4.30;1.40;;;13.80;99.90;;;;;;5070684;28;20444;-49
2022/09/13 08:20:24;;;;;;;4.05;1.30;;;14.00;99.90;;;;;;5070164;28;20477;-48
2022/09/13 08:22:52;;;;;;;2.45;1.30;;;14.10;99.90;;;;;;5071134;28;20471;-48
2022/09/13 08:25:19;;;;;;;1.53;1.00;;;14.10;99.90;;;;;;5070651;28;20226;-49
2022/09/13 08:27:46;;;;;;;2.43;1.00;;;14.10;99.90;;;;;;5070553;28;20428;-48
2022/09/13 08:30:13;;;;;;;4.27;1.67;;;14.40;99.90;;;;;;5070286;28;20448;-50
2022/09/13 08:32:40;;;;;;;1.90;1.00;;;14.40;99.90;;;;;;5070740;28;20498;-49
2022/09/13 08:35:08;;;;;;;4.43;1.23;;;14.50;99.90;;;;;;5070434;28;20459;-49
2022/09/13 08:37:35;;;;;;;8.43;1.60;;;14.90;99.90;;;;;;5070337;28;20443;-50
2022/09/13 08:40:04;;;;;;;2.13;0.70;;;14.90;99.90;;;;;;5070114;28;20595;-49
2022/09/13 08:42:46;;;;;;;1.63;1.00;;;14.70;99.90;;;;;;5070711;28;20523;-48
2022/09/13 08:45:13;;;;;;;4.75;1.05;;;14.80;99.90;;;;;;5070600;28;20486;-48
2022/09/13 08:47:45;;;;;;;2.07;0.80;;;15.00;99.90;;;;;;5070770;28;20288;-50
2022/09/13 08:50:18;;;;;;;5.30;1.00;;;15.00;99.90;;;;;;5069611;28;20443;-48
2022/09/13 08:52:58;;;;;;;1.88;0.90;;;15.30;99.90;;;;;;5070432;28;20456;-48
2022/09/13 08:55:37;;;;;;;5.30;1.40;;;15.30;99.90;;;;;;5072254;28;20639;-49
2022/09/13 08:58:19;;;;;;;2.40;0.77;;;15.40;99.90;;;;;;5074687;28;20602;-48
2022/09/13 09:00:51;;;;;;;1.83;0.70;;;15.30;99.90;;;;;;5073982;28;20493;-49
2022/09/13 09:03:27;;;;;;;12.30;1.90;;;15.30;99.90;;;;;;5074668;28;20531;-48
2022/09/13 09:05:54;;;;;;;3.42;1.70;;;15.50;99.90;;;;;;5074387;28;20454;-50
2022/09/13 09:08:32;;;;;;;2.30;1.03;;;15.70;99.90;;;;;;5073870;28;20571;-48
2022/09/13 09:11:07;;;;;;;1.40;0.90;;;15.90;99.90;;;;;;5073938;28;20837;-50
2022/09/13 09:13:39;;;;;;;3.83;1.40;;;15.90;99.90;;;;;;5075223;28;20501;-48
2022/09/13 09:16:11;;;;;;;6.07;1.27;;;16.10;99.90;;;;;;5074508;28;20772;-50
2022/09/13 09:18:42;;;;;;;1.33;0.80;;;16.20;99.90;;;;;;5074383;28;20468;-48
2022/09/13 09:21:15;;;;;;;1.90;1.10;;;16.30;99.90;;;;;;5073907;28;20473;-48
2022/09/13 09:23:55;;;;;;;2.17;1.00;;;16.30;99.90;;;;;;5073418;28;20432;-47
2022/09/13 09:26:27;;;;;;;3.73;0.90;;;16.40;99.90;;;;;;5073769;28;20480;-50
2022/09/13 09:28:57;;;;;;;1.45;0.68;;;16.50;99.90;;;;;;5072951;28;20430;-49
2022/09/13 09:31:31;;;;;;;1.43;0.80;;;16.90;99.90;;;;;;5073843;28;20727;-48
2022/09/13 09:34:11;;;;;;;1.45;0.80;;;16.80;99.90;;;;;;5073919;28;20507;-49
2022/09/13 09:36:42;;;;;;;2.17;0.90;;;16.80;99.90;;;;;;5073858;28;20214;-49
2022/09/13 09:39:13;;;;;;;2.47;1.20;;;16.90;99.90;;;;;;5073352;28;20726;-48
2022/09/13 09:41:42;;;;;;;1.30;0.80;;;17.00;99.90;;;;;;5073881;28;20531;-48
2022/09/13 09:44:17;;;;;;;2.70;0.77;;;17.10;99.90;;;;;;5073869;28;20436;-49
2022/09/13 09:46:47;;;;;;;1.57;0.60;;;17.20;99.90;;;;;;5073641;28;20452;-48
2022/09/13 09:52:06;;;;;;;1.80;0.70;;;17.30;99.90;;;;;;5073490;28;20808;-48
2022/09/13 09:54:36;;;;;;;7.27;1.30;;;17.50;99.90;;;;;;5073592;28;20468;-49
2022/09/13 09:57:07;;;;;;;4.00;1.03;;;17.60;99.90;;;;;;5073596;28;20445;-49
2022/09/13 09:59:36;;;;;;;1.40;0.80;;;17.60;99.90;;;;;;5073091;28;20440;-49
2022/09/13 10:02:16;;;;;;;2.00;0.83;;;17.70;99.90;;;;;;5073772;28;20429;-49
2022/09/13 10:04:43;;;;;;;1.93;0.60;;;17.50;99.90;;;;;;5073491;28;21387;-49
2022/09/13 10:07:24;;;;;;;1.23;0.70;;;17.80;99.90;;;;;;5072666;28;20440;-49
2022/09/13 10:09:58;;;;;;;1.20;0.70;;;18.00;99.90;;;;;;5071635;28;20194;-50
2022/09/13 10:12:33;;;;;;;1.93;0.70;;;17.80;99.90;;;;;;5073553;28;20852;-50
2022/09/13 10:15:06;;;;;;;2.53;1.00;;;17.80;99.90;;;;;;5073106;28;20482;-48
2022/09/13 10:17:33;;;;;;;1.10;0.60;;;17.90;99.90;;;;;;5073193;28;20509;-50
2022/09/13 10:20:02;;;;;;;6.40;1.30;;;18.20;99.90;;;;;;5072783;28;20556;-48
2022/09/13 10:22:31;;;;;;;2.50;0.70;;;18.40;99.90;;;;;;5072715;28;20453;-50
2022/09/13 10:25:14;;;;;;;5.18;0.70;;;18.60;99.90;;;;;;5073036;28;20477;-48
2022/09/13 10:27:47;;;;;;;2.50;0.70;;;18.50;99.90;;;;;;5074638;28;20199;-48
2022/09/13 10:30:32;;;;;;;1.57;0.70;;;18.30;99.90;;;;;;5072396;28;20484;-49
2022/09/13 10:33:00;;;;;;;2.55;1.60;;;18.60;99.90;;;;;;5073249;28;20453;-49
2022/09/13 10:35:28;;;;;;;3.03;1.93;;;18.60;99.90;;;;;;5072522;28;20691;-48
2022/09/13 10:37:55;;;;;;;2.60;0.97;;;18.60;99.90;;;;;;5072474;28;20433;-49
2022/09/13 10:40:27;;;;;;;25.87;4.07;;;18.60;99.90;;;;;;5072174;28;20506;-48
2022/09/13 10:42:58;;;;;;;2.50;0.90;;;18.70;99.90;;;;;;5072922;28;20476;-49
2022/09/13 10:45:27;;;;;;;1.20;0.60;;;18.70;99.90;;;;;;5072359;28;20464;-49
2022/09/13 10:47:58;;;;;;;1.30;0.80;;;18.60;99.90;;;;;;5072193;28;20620;-50
2022/09/13 10:50:27;;;;;;;1.30;0.70;;;18.50;99.90;;;;;;5071664;28;20468;-49
2022/09/13 10:52:55;;;;;;;1.50;0.80;;;18.60;99.90;;;;;;5072517;28;20497;-51
2022/09/13 10:55:32;;;;;;;1.90;0.87;;;18.80;99.90;;;;;;5072292;28;20537;-49
2022/09/13 10:58:18;;;;;;;1.40;0.70;;;18.80;99.90;;;;;;5072622;28;20433;-49
2022/09/13 11:01:09;;;;;;;4.00;0.90;;;18.90;99.90;;;;;;5072008;28;20486;-49
2022/09/13 11:04:04;;;;;;;2.10;0.87;;;18.80;99.90;;;;;;5072086;28;20675;-49
2022/09/13 11:06:42;;;;;;;2.70;0.90;;;18.80;99.90;;;;;;5072273;28;20492;-50
2022/09/13 11:09:13;;;;;;;1.98;1.00;;;18.90;99.90;;;;;;5070321;28;20440;-49
2022/09/13 11:11:48;;;;;;;2.03;0.73;;;19.10;99.90;;;;;;5071909;28;20533;-51
2022/09/13 11:14:36;;;;;;;7.97;2.57;;;18.90;99.90;;;;;;5071929;28;20541;-49
2022/09/13 11:17:15;;;;;;;6.20;1.70;;;19.10;99.90;;;;;;5072055;28;20479;-50
2022/09/13 11:20:06;;;;;;;1.90;0.70;;;19.10;99.90;;;;;;5071384;28;20456;-49
2022/09/13 11:22:51;;;;;;;1.10;0.50;;;19.30;99.90;;;;;;5063562;28;20467;-49
2022/09/13 11:25:36;;;;;;;1.40;0.70;;;19.30;99.90;;;;;;5071721;28;20464;-50
2022/09/13 11:28:14;;;;;;;3.30;1.17;;;19.40;99.90;;;;;;5072114;28;20475;-49
2022/09/13 11:30:57;;;;;;;2.03;0.90;;;19.50;99.90;;;;;;5071282;28;20947;-49
2022/09/13 11:33:33;;;;;;;1.30;0.70;;;19.70;99.90;;;;;;5071695;28;20227;-49
2022/09/13 11:36:17;;;;;;;2.20;0.80;;;19.90;99.90;;;;;;5071740;28;20448;-51
2022/09/13 11:38:54;;;;;;;1.70;0.80;;;19.90;99.90;;;;;;5071385;28;20448;-49
2022/09/13 11:41:31;;;;;;;1.50;0.90;;;19.80;99.90;;;;;;5071695;28;21010;-49
2022/09/13 11:44:28;;;;;;;1.23;0.73;;;19.80;99.90;;;;;;5071883;28;20990;-49
2022/09/13 11:47:06;;;;;;;2.20;1.20;;;20.10;99.90;;;;;;5071410;28;20849;-49
2022/09/13 11:49:47;;;;;;;1.57;0.90;;;20.20;99.90;;;;;;5070198;28;20490;-49
2022/09/13 11:52:27;;;;;;;3.05;0.80;;;20.30;99.90;;;;;;5071680;28;20848;-49
2022/09/13 11:55:07;;;;;;;1.30;0.70;;;20.40;99.90;;;;;;5071527;28;20271;-49
2022/09/13 11:57:39;;;;;;;1.77;0.63;;;20.40;99.90;;;;;;5071965;28;20435;-49
2022/09/13 12:00:15;;;;;;;2.20;0.90;;;20.40;99.90;;;;;;5071262;28;20264;-50
2022/09/13 12:02:49;;;;;;;1.30;0.83;;;20.50;99.90;;;;;;5071548;28;20455;-51
2022/09/13 12:05:21;;;;;;;1.37;1.00;;;20.60;99.90;;;;;;5071385;28;20498;-50
2022/09/13 12:07:52;;;;;;;2.27;1.00;;;20.50;99.90;;;;;;5070694;28;20443;-50
2022/09/13 12:10:25;;;;;;;1.50;0.90;;;20.50;99.90;;;;;;5070828;28;20979;-49
2022/09/13 12:12:54;;;;;;;2.67;0.90;;;20.60;99.90;;;;;;5071007;28;20437;-49
2022/09/13 12:15:29;;;;;;;1.60;1.03;;;20.50;99.90;;;;;;5070784;28;20498;-50
2022/09/13 12:18:02;;;;;;;2.47;1.10;;;20.60;99.90;;;;;;5071060;28;20980;-49
2022/09/13 12:20:34;;;;;;;3.60;1.60;;;20.70;99.90;;;;;;5070338;28;20498;-49
2022/09/13 12:23:02;;;;;;;4.10;1.27;;;20.90;99.90;;;;;;5071163;28;20490;-49
2022/09/13 12:25:39;;;;;;;1.67;0.80;;;21.10;99.90;;;;;;5070888;28;20244;-49
2022/09/13 12:28:14;;;;;;;4.50;1.00;;;21.00;99.90;;;;;;5070995;28;20824;-50
2022/09/13 12:30:47;;;;;;;6.63;1.30;;;21.00;99.90;;;;;;5075180;28;20444;-49
2022/09/13 12:33:16;;;;;;;3.83;1.10;;;20.80;99.90;;;;;;5077686;28;20505;-50
2022/09/13 12:35:53;;;;;;;2.33;1.07;;;21.00;99.90;;;;;;5077297;28;20552;-50
2022/09/13 12:38:48;;;;;;;9.70;1.27;;;21.00;99.90;;;;;;5077640;28;20998;-50
2022/09/13 12:41:30;;;;;;;1.70;1.07;;;21.00;99.90;;;;;;5072297;28;20933;-49
2022/09/13 12:44:39;;;;;;;2.77;1.20;;;21.00;99.90;;;;;;5077589;28;20486;-49
2022/09/13 12:47:32;;;;;;;3.03;0.77;;;21.30;99.90;;;;;;5041361;28;20960;-49
2022/09/13 12:50:30;;;;;;;2.45;0.90;;;21.10;99.90;;;;;;5075938;28;20231;-50
2022/09/13 12:53:08;;;;;;;2.77;1.40;;;21.30;99.90;;;;;;5077550;28;20277;-49
2022/09/13 12:55:56;;;;;;;3.00;0.80;;;21.40;99.90;;;;;;5077143;28;20892;-49
2022/09/13 12:58:53;;;;;;;1.75;0.90;;;21.20;99.90;;;;;;5077238;28;20531;-49
2022/09/13 13:01:22;;;;;;;3.60;0.90;;;21.20;99.90;;;;;;5077534;28;20562;-50
2022/09/13 13:03:53;;;;;;;2.70;0.80;;;21.40;99.90;;;;;;5077406;28;20485;-49
2022/09/13 13:06:29;;;;;;;1.60;0.70;;;21.30;99.90;;;;;;5077154;28;20491;-49
2022/09/13 13:08:58;;;;;;;2.60;0.90;;;21.30;99.90;;;;;;5075456;28;20498;-49
2022/09/13 13:11:30;;;;;;;2.63;1.10;;;21.30;99.90;;;;;;5077654;28;20472;-49
2022/09/13 13:14:02;;;;;;;1.70;0.90;;;21.60;99.90;;;;;;5077139;28;20443;-50
2022/09/13 13:16:31;;;;;;;5.53;1.23;;;21.50;99.90;;;;;;5077510;28;20810;-49